Time;durP1;ratioP1;P1;durP2;ratioP2;P2;SDS_P1;SDS_P2;PMS_P1;PMS_P2;Temp;Humidity;BMP_temperature;BMP_pressure;BME280_temperature;BME280_humidity;BME280_pressure;Samples;Min_cycle;Max_cycle;Signal;HPM_P1;HPM_P2
2024/01/23 00:02:07;;;;;;;9.93;2.00;;;;;;;6.49;96.60;101611.28;4956414;29;20027;-94
2024/01/23 00:04:36;;;;;;;9.70;2.28;;;;;;;6.61;96.32;101626.94;4957052;28;20030;-94
2024/01/23 00:07:01;;;;;;;15.52;2.70;;;;;;;6.55;95.72;101637.16;4956696;29;20078;-92
2024/01/23 00:09:45;;;;;;;15.70;2.80;;;;;;;6.54;95.64;101631.97;4956338;29;20031;-95
2024/01/23 00:12:10;;;;;;;12.57;2.50;;;;;;;6.57;95.91;101656.09;4956922;29;20173;-95
2024/01/23 00:14:51;;;;;;;10.83;2.83;;;;;;;6.49;96.08;101647.38;4956115;29;20027;-94
2024/01/23 00:17:16;;;;;;;10.65;2.53;;;;;;;6.44;95.98;101649.91;4956890;29;20058;-95
2024/01/23 00:20:00;;;;;;;12.10;2.53;;;;;;;6.45;95.05;101666.22;4955541;28;20384;-95
2024/01/23 00:22:25;;;;;;;10.75;2.20;;;;;;;6.58;95.31;101680.19;4956105;28;20047;-95
2024/01/23 00:24:50;;;;;;;10.00;2.27;;;;;;;6.55;96.29;101681.00;4956008;29;20046;-94
2024/01/23 00:27:34;;;;;;;9.77;2.30;;;;;;;6.45;96.36;101674.84;4956230;29;20456;-95
2024/01/23 00:29:59;;;;;;;11.20;2.50;;;;;;;6.40;95.22;101660.16;4956705;29;20066;-95
2024/01/23 00:32:30;;;;;;;12.57;2.50;;;;;;;6.49;95.90;101680.91;4955537;29;20162;-93
2024/01/23 00:35:05;;;;;;;11.40;2.67;;;;;;;6.48;95.81;101687.78;4956749;29;20027;-93
2024/01/23 00:37:31;;;;;;;12.63;2.53;;;;;;;6.46;95.46;101686.91;4956233;29;20115;-92
2024/01/23 00:40:17;;;;;;;12.85;2.70;;;;;;;6.52;95.82;101701.59;4956148;29;20428;-94
2024/01/23 00:42:42;;;;;;;11.32;2.70;;;;;;;6.47;96.11;101700.66;4956310;29;20030;-94
2024/01/23 00:45:15;;;;;;;10.93;2.40;;;;;;;6.49;96.52;101704.97;4955748;29;20475;-94
2024/01/23 00:47:46;;;;;;;11.85;2.55;;;;;;;6.45;95.89;101704.91;4953514;29;20077;-94
2024/01/23 00:50:11;;;;;;;12.07;2.38;;;;;;;6.51;95.20;101709.28;4956179;29;20047;-94
2024/01/23 00:52:58;;;;;;;13.50;2.60;;;;;;;6.52;95.39;101698.13;4955747;29;20067;-95
2024/01/23 00:55:24;;;;;;;11.43;2.33;;;;;;;6.40;95.57;101702.25;4955647;29;20086;-94
2024/01/23 00:57:49;;;;;;;16.93;3.10;;;;;;;6.50;95.30;101718.75;4956074;29;20023;-95
2024/01/23 01:00:36;;;;;;;14.60;3.13;;;;;;;6.52;94.61;101734.25;4955851;29;20024;-93
2024/01/23 01:03:01;;;;;;;10.95;2.45;;;;;;;6.39;95.69;101731.47;4956342;29;20029;-95
2024/01/23 01:05:46;;;;;;;10.90;2.40;;;;;;;6.47;95.74;101747.06;4955612;29;20484;-94
2024/01/23 01:08:12;;;;;;;13.20;2.65;;;;;;;6.34;95.17;101722.81;4955687;29;20376;-93
2024/01/23 01:10:37;;;;;;;15.40;2.80;;;;;;;6.38;95.30;101742.63;4956061;29;20024;-94
2024/01/23 01:13:23;;;;;;;11.50;2.33;;;;;;;6.38;95.51;101754.66;4955872;29;20124;-95
2024/01/23 01:16:10;;;;;;;14.18;2.90;;;;;;;6.32;95.49;101766.59;4955794;29;20349;-94
2024/01/23 01:18:36;;;;;;;13.50;2.67;;;;;;;6.29;95.36;101747.63;4955701;29;20099;-95
2024/01/23 01:21:16;;;;;;;13.48;2.40;;;;;;;6.26;95.04;101760.47;4955886;29;20082;-94
2024/01/23 01:23:42;;;;;;;9.35;2.10;;;;;;;6.24;96.14;101775.06;4955523;28;20155;-95
2024/01/23 01:26:10;;;;;;;11.67;2.37;;;;;;;6.09;95.88;101770.47;4955064;29;20074;-94
2024/01/23 01:28:36;;;;;;;10.18;2.45;;;;;;;6.13;95.82;101795.47;4955869;29;20062;-94
2024/01/23 01:31:02;;;;;;;14.52;2.80;;;;;;;6.03;95.87;101778.94;4955511;28;20087;-95
2024/01/23 01:33:36;;;;;;;12.00;2.60;;;;;;;6.06;95.62;101786.75;4955130;29;20113;-94
2024/01/23 01:38:46;;;;;;;13.10;2.60;;;;;;;5.97;96.23;101797.72;4956137;29;20138;-94
2024/01/23 01:41:33;;;;;;;11.70;2.30;;;;;;;6.03;96.17;101822.75;4955898;29;20130;-94
2024/01/23 01:44:17;;;;;;;11.32;2.17;;;;;;;5.97;96.42;101820.91;4955173;29;20106;-94
2024/01/23 01:46:43;;;;;;;7.85;2.30;;;;;;;5.95;95.99;101824.28;4955884;29;20023;-94
2024/01/23 01:49:10;;;;;;;8.52;2.42;;;;;;;5.87;96.58;101811.25;4955357;29;20032;-95
2024/01/23 01:51:37;;;;;;;14.07;2.60;;;;;;;5.90;96.98;101815.63;4955248;29;20028;-94
2024/01/23 01:54:04;;;;;;;10.32;2.38;;;;;;;5.87;96.76;101829.28;4955628;29;20035;-94
2024/01/23 01:56:35;;;;;;;;;;;;;;;5.88;97.11;101831.91;4951810;29;20039;-94
2024/01/23 01:59:01;;;;;;;16.02;3.20;;;;;;;5.85;97.25;101838.72;4955813;29;19921;-94
2024/01/23 02:02:02;;;;;;;15.33;2.83;;;;;;;5.83;97.31;101853.28;4955536;29;20031;-94
2024/01/23 02:04:27;;;;;;;10.75;2.28;;;;;;;5.80;97.32;101855.78;4953053;29;20054;-95
2024/01/23 02:06:52;;;;;;;12.97;2.87;;;;;;;5.81;97.55;101866.09;4956079;29;20082;-94
2024/01/23 02:09:18;;;;;;;13.27;2.57;;;;;;;5.75;97.37;101865.09;4955482;29;20026;-95
2024/01/23 02:11:57;;;;;;;13.23;2.60;;;;;;;5.78;97.16;101860.03;4955682;29;20484;-94
2024/01/23 02:14:22;;;;;;;13.68;2.90;;;;;;;5.80;97.46;101873.81;4955282;28;20562;-94
2024/01/23 02:16:47;;;;;;;14.37;2.90;;;;;;;5.75;97.50;101870.25;4955249;29;20038;-94
2024/01/23 02:19:15;;;;;;;13.15;2.65;;;;;;;5.75;97.72;101878.88;4955339;29;20118;-95
2024/01/23 02:21:41;;;;;;;15.48;2.78;;;;;;;5.72;97.74;101871.97;4955903;29;20027;-91
2024/01/23 02:24:06;;;;;;;8.20;2.40;;;;;;;5.65;97.75;101885.53;4955124;29;20039;-92
2024/01/23 02:26:33;;;;;;;8.93;2.27;;;;;;;5.65;98.08;101887.25;4955610;29;20456;-94
2024/01/23 02:28:58;;;;;;;;;;;;;;;5.62;97.81;101893.19;4956352;29;20027;-94
2024/01/23 02:31:23;;;;;;;14.83;2.87;;;;;;;5.61;98.17;101899.19;4955882;29;19914;-93
2024/01/23 02:33:49;;;;;;;12.33;2.83;;;;;;;5.62;98.21;101900.94;4955806;29;20110;-94
2024/01/23 02:36:15;;;;;;;11.93;2.50;;;;;;;5.63;98.30;101905.22;4956288;29;20060;-95
2024/01/23 02:38:40;;;;;;;11.18;2.60;;;;;;;5.55;98.31;101904.19;4955991;29;20043;-96
2024/01/23 02:41:05;;;;;;;14.27;2.38;;;;;;;5.52;98.61;101917.88;4956250;29;20047;-94
2024/01/23 02:43:47;;;;;;;11.35;2.38;;;;;;;5.54;98.81;101925.63;4958140;28;20395;-93
2024/01/23 02:46:12;;;;;;;16.13;2.40;;;;;;;5.51;98.61;101923.84;4960669;29;20023;-93
2024/01/23 02:49:01;;;;;;;16.03;2.50;;;;;;;5.55;98.97;101922.22;4960787;29;20428;-94
2024/01/23 02:51:27;;;;;;;11.35;2.38;;;;;;;5.53;98.90;101929.03;4962312;29;20031;-94
2024/01/23 02:53:52;;;;;;;9.80;2.33;;;;;;;5.55;99.25;101942.81;4953200;29;20512;-95
2024/01/23 02:56:27;;;;;;;11.40;2.58;;;;;;;5.53;98.92;101945.34;4948313;29;20051;-94
2024/01/23 02:58:52;;;;;;;12.88;2.40;;;;;;;5.38;99.15;101932.09;4948378;29;20055;-94
2024/01/23 03:01:32;;;;;;;10.37;2.30;;;;;;;5.37;99.30;101938.09;4954080;28;20020;-93
2024/01/23 03:03:58;;;;;;;15.40;2.80;;;;;;;5.46;99.28;101961.47;4958843;28;20039;-94
2024/01/23 03:06:36;;;;;;;11.73;2.37;;;;;;;5.41;99.49;101966.53;4954167;29;20038;-94
2024/01/23 03:09:02;;;;;;;15.43;2.95;;;;;;;5.47;99.27;101970.09;4958638;28;20088;-92
2024/01/23 03:11:28;;;;;;;13.17;2.63;;;;;;;5.40;99.50;101962.19;4939231;29;20035;-94
2024/01/23 03:14:02;;;;;;;14.30;2.80;;;;;;;5.49;99.65;101983.88;4938827;29;20032;-94
2024/01/23 03:16:28;;;;;;;11.10;2.30;;;;;;;5.39;99.58;101964.75;4938933;29;20028;-95
2024/01/23 03:18:53;;;;;;;12.50;2.40;;;;;;;5.55;99.24;101981.44;4938443;29;20460;-91
2024/01/23 03:21:27;;;;;;;11.97;2.53;;;;;;;5.50;99.80;101983.91;4937958;29;20031;-94
2024/01/23 03:23:52;;;;;;;11.40;2.55;;;;;;;5.38;99.70;101974.19;4937736;28;20044;-94
2024/01/23 03:26:44;;;;;;;11.33;2.30;;;;;;;5.54;99.58;102006.34;4938443;29;20035;-94
2024/01/23 03:29:09;;;;;;;12.75;2.80;;;;;;;5.57;99.82;102001.22;4938516;29;20094;-93
2024/01/23 03:31:49;;;;;;;10.13;2.50;;;;;;;5.45;99.67;101993.22;4919736;29;20126;-94
2024/01/23 03:34:14;;;;;;;10.75;2.72;;;;;;;5.49;99.75;101996.75;4938313;29;20028;-95
2024/01/23 03:36:40;;;;;;;12.30;2.50;;;;;;;5.37;99.86;101987.00;4937809;29;20066;-94
2024/01/23 03:39:22;;;;;;;13.80;2.50;;;;;;;5.38;100.00;101993.91;4938130;29;20032;-95
2024/01/23 03:42:10;;;;;;;9.07;2.28;;;;;;;5.33;100.00;102006.66;4938262;29;20042;-94
2024/01/23 03:44:35;;;;;;;12.75;2.72;;;;;;;5.29;100.00;102003.97;4938398;29;20024;-94
2024/01/23 03:47:00;;;;;;;11.60;2.47;;;;;;;5.20;100.00;102007.16;4938306;29;20092;-94
2024/01/23 03:49:33;;;;;;;9.10;2.17;;;;;;;5.13;100.00;102023.28;4937634;29;20548;-94
2024/01/23 03:51:59;;;;;;;11.77;2.53;;;;;;;5.10;100.00;102034.41;4938155;29;20090;-94
2024/01/23 03:54:24;;;;;;;11.83;2.20;;;;;;;5.14;100.00;102053.34;4937673;29;20031;-95
2024/01/23 03:56:58;;;;;;;11.77;2.10;;;;;;;5.01;100.00;102042.72;4937106;29;20130;-94
2024/01/23 03:59:24;;;;;;;9.80;2.35;;;;;;;5.02;100.00;102059.03;4937355;29;20027;-95
2024/01/23 04:02:05;;;;;;;10.70;2.40;;;;;;;5.04;100.00;102065.97;4937768;29;20115;-94
2024/01/23 04:04:31;;;;;;;10.73;2.40;;;;;;;5.01;100.00;102062.47;4937018;29;20099;-94
2024/01/23 04:07:14;;;;;;;11.57;2.20;;;;;;;4.94;100.00;102049.41;4937965;29;20504;-93
2024/01/23 04:09:39;;;;;;;11.65;2.70;;;;;;;4.94;100.00;102056.25;4937738;29;20082;-94
2024/01/23 04:12:25;;;;;;;10.77;2.40;;;;;;;4.90;100.00;102046.72;4938832;29;20119;-93
2024/01/23 04:14:51;;;;;;;16.38;2.85;;;;;;;4.87;100.00;102038.91;4956733;28;20050;-94
2024/01/23 04:17:34;;;;;;;9.73;2.43;;;;;;;4.83;100.00;102052.53;4937794;29;20020;-94
2024/01/23 04:19:59;;;;;;;11.90;2.75;;;;;;;4.72;100.00;102036.78;4937581;29;20019;-93
2024/01/23 04:22:31;;;;;;;9.83;2.03;;;;;;;4.76;100.00;102054.91;4936253;29;20051;-94
2024/01/23 04:24:56;;;;;;;7.85;2.40;;;;;;;4.70;100.00;102048.72;4937153;29;20107;-94
2024/01/23 04:27:24;;;;;;;10.30;2.00;;;;;;;4.70;100.00;102059.00;4937583;29;20043;-94
2024/01/23 04:29:50;;;;;;;11.98;2.90;;;;;;;4.76;100.00;102067.75;4937283;29;20035;-94
2024/01/23 04:32:15;;;;;;;6.53;2.30;;;;;;;4.71;100.00;102078.75;4936695;29;20028;-92
2024/01/23 04:34:52;;;;;;;9.65;2.17;;;;;;;4.71;100.00;102079.63;4936847;29;20020;-95
2024/01/23 04:37:17;;;;;;;10.13;2.40;;;;;;;4.75;100.00;102098.59;4920086;29;20046;-94
2024/01/23 04:39:50;;;;;;;14.82;2.70;;;;;;;4.70;100.00;102106.19;4937093;29;20028;-94
2024/01/23 04:42:16;;;;;;;15.02;2.45;;;;;;;4.76;100.00;102124.34;4937075;29;20111;-95
2024/01/23 04:44:44;;;;;;;9.27;2.03;;;;;;;4.75;100.00;102117.47;4937284;29;20078;-94
2024/01/23 04:47:09;;;;;;;13.63;2.70;;;;;;;4.69;100.00;102125.00;4936946;29;20032;-94
2024/01/23 04:49:52;;;;;;;7.90;2.40;;;;;;;4.73;100.00;102146.53;4936398;29;20032;-93
2024/01/23 04:52:33;;;;;;;12.15;2.53;;;;;;;4.64;100.00;102126.56;4936612;29;20091;-94
2024/01/23 04:55:16;;;;;;;11.73;2.55;;;;;;;4.57;100.00;102135.78;4936484;29;20023;-94
2024/01/23 04:57:42;;;;;;;12.45;2.67;;;;;;;4.66;100.00;102149.75;4936282;29;20476;-94
2024/01/23 05:00:29;;;;;;;6.80;2.00;;;;;;;4.63;100.00;102155.66;4936738;29;20111;-94
2024/01/23 05:02:58;;;;;;;12.23;2.42;;;;;;;4.51;100.00;102145.00;4936715;29;20487;-94
2024/01/23 05:05:23;;;;;;;14.07;2.55;;;;;;;4.54;100.00;102160.53;4935988;29;20040;-94
2024/01/23 05:08:05;;;;;;;11.27;2.40;;;;;;;4.44;100.00;102144.81;4936336;29;20034;-94
2024/01/23 05:10:30;;;;;;;11.85;2.60;;;;;;;4.60;100.00;102178.75;4936399;29;20086;-92
2024/01/23 05:13:07;;;;;;;7.83;2.43;;;;;;;4.47;100.00;102165.50;4936141;29;20088;-95
2024/01/23 05:15:33;;;;;;;9.60;2.40;;;;;;;4.48;100.00;102181.78;4936374;29;20054;-94
2024/01/23 05:18:10;;;;;;;12.07;2.33;;;;;;;4.43;100.00;102183.34;4947063;28;20016;-94
2024/01/23 05:20:35;;;;;;;;;;;;;;;4.55;100.00;102198.28;4948605;28;20428;-95
2024/01/23 05:23:02;;;;;;;10.80;2.30;;;;;;;4.38;100.00;102178.06;4936063;29;19922;-95
2024/01/23 05:25:35;;;;;;;15.23;3.00;;;;;;;4.38;100.00;102178.06;4936676;29;20040;-94
2024/01/23 05:28:00;;;;;;;7.78;2.00;;;;;;;4.46;100.00;102194.59;4936361;29;20028;-94
2024/01/23 05:30:44;;;;;;;9.93;2.50;;;;;;;4.38;100.00;102195.16;4936547;29;20078;-95
2024/01/23 05:33:09;;;;;;;8.30;2.05;;;;;;;4.40;100.00;102204.66;4936355;29;20093;-94
2024/01/23 05:35:35;;;;;;;8.07;2.23;;;;;;;4.31;100.00;102207.84;4936326;29;20376;-95
2024/01/23 05:38:00;;;;;;;9.32;2.08;;;;;;;4.32;100.00;102218.97;4936714;29;20038;-95
2024/01/23 05:40:33;;;;;;;8.90;2.25;;;;;;;4.24;100.00;102220.44;4936098;29;20027;-94
2024/01/23 05:42:58;;;;;;;6.32;1.65;;;;;;;4.27;100.00;102229.09;4936437;29;20040;-94
2024/01/23 05:45:24;;;;;;;11.37;2.10;;;;;;;4.27;100.00;102238.53;4936185;29;20031;-95
2024/01/23 05:48:08;;;;;;;8.43;2.07;;;;;;;4.30;100.00;102264.31;4936254;29;20190;-95
2024/01/23 05:50:34;;;;;;;7.72;1.90;;;;;;;4.27;100.00;102274.50;4936359;29;20054;-95
2024/01/23 05:53:40;;;;;;;8.73;2.00;;;;;;;4.22;100.00;102281.19;4936156;29;20024;-95
2024/01/23 05:56:05;;;;;;;5.63;1.67;;;;;;;4.17;100.00;102281.88;4936114;29;20036;-95
2024/01/23 05:58:30;;;;;;;6.93;1.63;;;;;;;4.09;100.00;102277.31;4935900;29;20121;-94
2024/01/23 06:00:57;;;;;;;8.83;2.13;;;;;;;4.12;100.00;102283.44;4936426;29;20103;-94
2024/01/23 06:03:22;;;;;;;6.00;1.80;;;;;;;4.11;100.00;102294.53;4952629;29;20470;-91
2024/01/23 06:05:47;;;;;;;12.45;2.33;;;;;;;4.04;100.00;102286.56;4955174;28;20435;-91
2024/01/23 06:08:13;;;;;;;13.77;3.10;;;;;;;4.07;100.00;102287.53;4954877;28;20015;-92
2024/01/23 06:10:38;;;;;;;13.05;2.70;;;;;;;4.04;100.00;102286.56;4955104;29;20081;-91
2024/01/23 06:13:03;;;;;;;11.03;2.63;;;;;;;4.03;100.00;102285.69;4955235;29;20042;-92
2024/01/23 06:15:29;;;;;;;10.20;2.20;;;;;;;4.03;100.00;102283.13;4955349;29;20023;-92
2024/01/23 06:17:54;;;;;;;11.88;2.30;;;;;;;4.02;100.00;102291.66;4955997;28;20452;-91
2024/01/23 06:20:20;;;;;;;12.23;2.47;;;;;;;4.00;100.00;102290.72;4959078;29;20086;-92
2024/01/23 06:22:45;;;;;;;10.57;2.70;;;;;;;3.96;100.00;102293.97;4963891;29;20019;-91
2024/01/23 06:25:15;;;;;;;9.73;2.27;;;;;;;4.02;100.00;102299.34;4970505;28;20051;-92
2024/01/23 06:27:42;;;;;;;8.52;2.22;;;;;;;4.00;100.00;102307.00;4959360;29;20019;-92
2024/01/23 06:30:11;;;;;;;8.07;2.30;;;;;;;4.00;100.00;102313.84;4958964;29;20042;-91
2024/01/23 06:32:37;;;;;;;12.63;2.40;;;;;;;4.01;100.00;102315.59;4959316;29;20055;-90
2024/01/23 06:35:02;;;;;;;8.87;2.10;;;;;;;4.05;100.00;102325.16;4959145;29;20031;-91
2024/01/23 06:37:28;;;;;;;9.30;2.10;;;;;;;4.04;100.00;102325.97;4959382;29;20042;-92
2024/01/23 06:39:53;;;;;;;8.77;2.05;;;;;;;4.06;100.00;102328.59;4959355;29;20050;-92
2024/01/23 06:42:24;;;;;;;13.20;2.55;;;;;;;3.99;100.00;102323.25;4958980;29;20110;-92
2024/01/23 06:44:59;;;;;;;12.23;2.20;;;;;;;4.00;100.00;102331.81;4958586;29;20030;-89
2024/01/23 06:47:24;;;;;;;13.30;2.78;;;;;;;3.98;100.00;102320.59;4958993;29;20153;-92
2024/01/23 06:49:49;;;;;;;14.30;2.80;;;;;;;4.06;100.00;102334.59;4959672;28;20479;-91
2024/01/23 06:52:15;;;;;;;11.10;2.13;;;;;;;3.96;100.00;102305.16;4959458;29;20026;-92
2024/01/23 06:54:41;;;;;;;11.80;2.22;;;;;;;4.02;100.00;102325.03;4959458;29;20033;-93
2024/01/23 06:57:28;;;;;;;10.23;2.40;;;;;;;4.05;100.00;102330.31;4960972;29;20023;-92
2024/01/23 06:59:53;;;;;;;12.65;2.60;;;;;;;3.92;100.00;102322.97;4962002;29;20043;-91
2024/01/23 07:02:39;;;;;;;13.33;2.50;;;;;;;3.96;100.00;102337.66;4962416;28;20030;-94
2024/01/23 07:05:05;;;;;;;11.52;2.65;;;;;;;4.00;100.00;102342.97;4963643;29;20506;-94
2024/01/23 07:07:30;;;;;;;17.15;3.00;;;;;;;3.99;100.00;102340.34;4964689;29;20023;-93
2024/01/23 07:09:55;;;;;;;14.75;2.78;;;;;;;4.02;100.00;102350.75;4968410;28;20038;-93
2024/01/23 07:12:21;;;;;;;16.33;2.53;;;;;;;4.05;100.00;102363.72;4973925;29;20083;-92
2024/01/23 07:14:46;;;;;;;11.65;2.60;;;;;;;4.02;100.00;102356.75;4976772;28;20042;-94
2024/01/23 07:17:12;;;;;;;10.87;2.40;;;;;;;4.02;100.00;102354.16;4972598;29;20054;-93
2024/01/23 07:19:37;;;;;;;8.97;2.00;;;;;;;3.97;100.00;102350.56;4967258;29;20023;-94
2024/01/23 07:22:26;;;;;;;8.93;2.00;;;;;;;3.99;100.00;102360.91;4960026;29;20054;-94
2024/01/23 07:24:51;;;;;;;9.35;2.22;;;;;;;3.90;100.00;102356.28;4956849;28;20134;-95
2024/01/23 07:27:18;;;;;;;9.73;2.00;;;;;;;3.86;100.00;102351.88;4958130;29;20067;-91
2024/01/23 07:29:43;;;;;;;;;;;;;;;3.95;100.00;102374.44;4971793;28;20031;-90
2024/01/23 07:32:08;;;;;;;7.70;1.90;;;;;;;3.78;100.00;102356.72;4956729;29;19991;-90
2024/01/23 07:34:40;;;;;;;6.70;1.70;;;;;;;3.86;100.00;102380.13;4956960;29;20113;-95
2024/01/23 07:37:15;;;;;;;5.45;1.90;;;;;;;3.89;100.00;102393.06;4957453;29;20023;-95
2024/01/23 07:39:40;;;;;;;9.93;1.90;;;;;;;3.79;100.00;102371.31;4957237;29;20081;-95
2024/01/23 07:42:13;;;;;;;10.13;2.17;;;;;;;3.80;100.00;102388.47;4957500;29;20052;-95
2024/01/23 07:45:00;;;;;;;7.25;2.08;;;;;;;3.85;100.00;102393.78;4954492;29;20035;-95
2024/01/23 07:47:26;;;;;;;10.70;2.28;;;;;;;3.82;100.00;102398.81;4956956;29;20027;-95
2024/01/23 07:49:51;;;;;;;6.80;2.30;;;;;;;3.75;100.00;102397.69;4956866;29;20089;-95
2024/01/23 07:52:19;;;;;;;11.85;2.08;;;;;;;3.75;100.00;102397.69;4947563;29;20496;-94
2024/01/23 07:54:57;;;;;;;8.98;2.47;;;;;;;3.69;100.00;102372.66;4939856;29;20132;-95
2024/01/23 07:57:22;;;;;;;10.73;2.30;;;;;;;3.85;100.00;102394.66;4938143;29;20023;-95
2024/01/23 08:00:01;;;;;;;6.57;2.10;;;;;;;3.83;100.00;102405.69;4938324;29;20171;-95
2024/01/23 08:02:39;;;;;;;9.93;2.20;;;;;;;3.69;100.00;102384.63;4937851;29;20400;-96
2024/01/23 08:05:04;;;;;;;6.05;2.00;;;;;;;3.81;100.00;102403.06;4937766;29;20063;-95
2024/01/23 08:07:41;;;;;;;7.90;1.77;;;;;;;3.65;100.00;102398.16;4937983;29;20160;-95
2024/01/23 08:10:37;;;;;;;5.50;1.67;;;;;;;3.73;100.00;102416.44;4938058;29;20449;-96
2024/01/23 08:13:06;;;;;;;4.10;1.30;;;;;;;3.63;100.00;102417.75;4931152;29;20043;-95
2024/01/23 08:15:31;;;;;;;5.43;1.70;;;;;;;3.66;100.00;102439.28;4936286;29;20031;-95
2024/01/23 08:18:17;;;;;;;6.67;1.90;;;;;;;3.73;100.00;102452.38;4954240;29;20360;-94
2024/01/23 08:20:42;;;;;;;7.80;1.90;;;;;;;3.67;100.00;102458.16;4965407;23;20024;-94
2024/01/23 08:23:07;;;;;;;5.88;1.88;;;;;;;3.74;100.00;102469.53;4958035;28;20035;-95
2024/01/23 08:25:34;;;;;;;7.53;1.88;;;;;;;3.70;100.00;102464.28;4958204;28;20055;-94
2024/01/23 08:27:59;;;;;;;7.50;2.20;;;;;;;3.71;100.00;102476.31;4956568;29;20024;-94
2024/01/23 08:30:25;;;;;;;6.90;2.00;;;;;;;3.70;100.00;102482.25;4955804;29;20027;-94
2024/01/23 08:32:50;;;;;;;7.82;1.85;;;;;;;3.64;100.00;102476.91;4963710;28;20023;-94
2024/01/23 08:35:15;;;;;;;6.68;1.90;;;;;;;3.73;100.00;102493.47;4972511;28;20413;-94
2024/01/23 08:37:41;;;;;;;4.90;1.50;;;;;;;3.73;100.00;102490.91;4955794;29;20035;-95
2024/01/23 08:40:07;;;;;;;3.30;1.77;;;;;;;3.76;100.00;102507.31;4956089;28;20452;-94
2024/01/23 08:42:33;;;;;;;5.87;1.90;;;;;;;3.77;100.00;102508.19;4955613;29;20023;-94
2024/01/23 08:44:58;;;;;;;6.65;2.00;;;;;;;3.79;100.00;102510.00;4955563;29;20305;-95
2024/01/23 08:47:23;;;;;;;8.77;2.13;;;;;;;3.83;100.00;102509.28;4955478;29;20027;-93
2024/01/23 08:49:49;;;;;;;5.30;1.90;;;;;;;3.83;100.00;102490.44;4955723;29;20024;-96
2024/01/23 08:52:15;;;;;;;8.40;2.10;;;;;;;3.88;100.00;102508.59;4955025;28;20035;-95
2024/01/23 08:54:40;;;;;;;8.75;2.50;;;;;;;3.94;100.00;102507.16;4955639;29;20034;-95
2024/01/23 08:57:06;;;;;;;11.00;2.72;;;;;;;3.97;100.00;102502.16;4955583;29;20099;-96
2024/01/23 08:59:31;;;;;;;10.10;2.70;;;;;;;4.00;100.00;102496.25;4955403;29;20170;-95
2024/01/23 09:01:56;;;;;;;10.37;2.50;;;;;;;4.08;100.00;102504.25;4955978;29;20035;-96
2024/01/23 09:04:21;;;;;;;8.10;2.45;;;;;;;4.13;100.00;102507.84;4955280;29;20042;-95
2024/01/23 09:06:47;;;;;;;9.50;2.20;;;;;;;4.20;100.00;102514.09;4954927;29;20039;-95
2024/01/23 09:09:13;;;;;;;9.57;2.27;;;;;;;4.26;100.00;102502.38;4955511;29;20058;-96
2024/01/23 09:11:39;;;;;;;13.68;2.70;;;;;;;4.34;100.00;102500.09;4956066;29;20526;-95
2024/01/23 09:14:04;;;;;;;8.20;2.40;;;;;;;4.37;100.00;102489.94;4954355;29;20089;-95
2024/01/23 09:16:29;;;;;;;9.53;2.17;;;;;;;4.45;100.00;102503.03;4955502;29;20062;-95
2024/01/23 09:18:55;;;;;;;12.00;2.60;;;;;;;4.48;100.00;102498.91;4955646;29;20028;-95
2024/01/23 09:21:22;;;;;;;9.70;2.67;;;;;;;4.57;100.00;102516.34;4954758;28;20069;-95
2024/01/23 09:23:47;;;;;;;9.10;2.40;;;;;;;4.60;100.00;102511.31;4955808;29;20039;-95
2024/01/23 09:26:15;;;;;;;10.30;2.42;;;;;;;4.72;100.00;102505.75;4955983;29;20027;-96
2024/01/23 09:28:41;;;;;;;14.50;3.33;;;;;;;4.81;100.00;102512.91;4954475;29;20118;-96
2024/01/23 09:31:09;;;;;;;13.20;2.77;;;;;;;4.79;100.00;102491.41;4955505;29;20070;-96
2024/01/23 09:33:46;;;;;;;10.68;2.70;;;;;;;4.88;100.00;102499.47;4955072;29;20090;-95
2024/01/23 09:36:20;;;;;;;14.40;2.80;;;;;;;4.91;100.00;102488.41;4955482;29;20035;-96
2024/01/23 09:38:58;;;;;;;12.48;3.03;;;;;;;4.94;100.00;102479.06;4969771;28;20098;-96
2024/01/23 09:41:33;;;;;;;12.70;2.65;;;;;;;5.12;100.00;102495.09;4962425;28;20032;-96
2024/01/23 09:43:59;;;;;;;11.73;2.75;;;;;;;5.05;100.00;102482.03;4955213;29;20035;-95
2024/01/23 09:46:24;;;;;;;11.10;2.80;;;;;;;5.27;100.00;102505.91;4955120;29;20027;-95
2024/01/23 09:48:55;;;;;;;7.27;2.43;;;;;;;5.36;100.00;102511.38;4954945;29;20159;-95
2024/01/23 09:51:21;;;;;;;16.17;3.25;;;;;;;5.37;100.00;102495.09;4955087;29;20063;-95
2024/01/23 09:53:49;;;;;;;11.00;2.63;;;;;;;5.51;100.00;102508.41;4959287;28;20495;-95
2024/01/23 09:56:27;;;;;;;13.27;3.10;;;;;;;5.52;100.00;102496.41;4961582;29;20039;-95
2024/01/23 09:59:03;;;;;;;14.80;2.97;;;;;;;5.51;100.00;102499.81;4959488;29;20030;-96
2024/01/23 10:01:48;;;;;;;13.07;2.88;;;;;;;5.55;100.00;102481.94;4959428;29;20031;-95
2024/01/23 10:04:29;;;;;;;11.38;2.75;;;;;;;5.72;100.00;102509.91;4960954;28;20043;-94
2024/01/23 10:07:16;;;;;;;12.13;2.80;;;;;;;5.78;100.00;102491.19;4994311;28;20118;-95
2024/01/23 10:09:48;;;;;;;16.33;3.17;;;;;;;5.92;100.00;102523.44;4996810;28;20041;-95
2024/01/23 10:12:24;;;;;;;11.55;2.70;;;;;;;5.84;100.00;102500.00;4997259;28;20109;-95
2024/01/23 10:14:49;;;;;;;12.07;2.90;;;;;;;5.97;100.00;102511.56;4998209;28;20019;-94
2024/01/23 10:17:40;;;;;;;13.67;3.13;;;;;;;6.09;100.00;102520.53;4997757;28;20044;-95
2024/01/23 10:20:08;;;;;;;8.52;2.15;;;;;;;6.09;100.00;102505.06;4997928;28;20014;-95
2024/01/23 10:22:53;;;;;;;13.88;2.90;;;;;;;6.07;100.00;102496.44;4997982;28;20068;-96
2024/01/23 10:25:30;;;;;;;11.38;2.70;;;;;;;6.14;100.00;102509.53;4990061;28;20109;-95
2024/01/23 10:28:22;;;;;;;12.38;2.58;;;;;;;6.29;99.00;102522.00;4997734;28;20053;-94
2024/01/23 10:30:47;;;;;;;11.07;2.88;;;;;;;6.37;98.77;102524.78;4998258;28;20049;-95
2024/01/23 10:33:13;;;;;;;9.17;2.60;;;;;;;6.41;99.61;102510.31;4991928;28;20043;-95
2024/01/23 10:35:46;;;;;;;8.77;2.40;;;;;;;6.54;100.00;102520.13;4997559;28;20018;-95
2024/01/23 10:38:16;;;;;;;7.70;2.50;;;;;;;6.60;99.74;102528.06;4997971;28;20285;-95
2024/01/23 10:40:55;;;;;;;10.27;2.33;;;;;;;6.54;98.76;102507.22;4998117;28;20031;-95
2024/01/23 10:43:21;;;;;;;11.43;2.47;;;;;;;6.63;97.56;102515.25;5004570;28;20046;-95
2024/01/23 10:46:02;;;;;;;11.00;2.40;;;;;;;6.75;98.44;102513.84;5012626;28;20053;-95
2024/01/23 10:48:30;;;;;;;8.00;2.30;;;;;;;6.80;98.79;102510.56;4997731;28;20023;-95
2024/01/23 10:51:17;;;;;;;10.00;2.28;;;;;;;6.70;97.66;102493.03;4998079;28;20034;-96
2024/01/23 10:54:36;;;;;;;8.48;2.20;;;;;;;6.84;98.03;102516.66;4978192;28;20066;-94
2024/01/23 10:57:19;;;;;;;10.20;2.50;;;;;;;6.70;97.46;102492.19;4968917;28;20105;-95
2024/01/23 10:59:46;;;;;;;13.05;2.80;;;;;;;6.71;96.50;102497.38;4978944;28;20490;-95
2024/01/23 11:03:04;;;;;;;10.75;2.92;;;;;;;6.88;96.50;102513.31;4978824;28;20033;-95
2024/01/23 11:05:53;;;;;;;11.18;2.55;;;;;;;7.01;95.77;102504.22;4978802;28;20163;-95
2024/01/23 11:08:45;;;;;;;13.07;2.67;;;;;;;6.94;96.50;102484.22;4980130;28;20057;-95
2024/01/23 11:11:36;;;;;;;9.95;2.42;;;;;;;7.03;95.46;102507.72;4980104;28;20132;-93
2024/01/23 11:14:25;;;;;;;9.07;2.20;;;;;;;6.97;95.66;102486.88;4981771;28;20038;-95
2024/01/23 11:17:16;;;;;;;9.43;2.40;;;;;;;6.98;96.95;102480.03;4983544;28;20047;-95
2024/01/23 11:20:00;;;;;;;8.85;2.20;;;;;;;6.86;95.64;102457.34;4985362;28;20061;-95
2024/01/23 11:22:27;;;;;;;12.23;2.55;;;;;;;7.00;94.65;102466.31;4989045;28;20067;-95
2024/01/23 11:24:52;;;;;;;11.57;2.60;;;;;;;6.96;94.83;102454.16;4998743;28;20066;-94
2024/01/23 11:27:19;;;;;;;9.03;2.43;;;;;;;6.95;95.29;102450.72;4995490;28;20023;-95
2024/01/23 11:29:46;;;;;;;9.85;2.33;;;;;;;6.87;95.62;102413.50;4995183;28;20006;-95
2024/01/23 11:32:33;;;;;;;9.82;2.38;;;;;;;7.00;94.81;102452.53;4989714;28;20030;-95
2024/01/23 11:35:03;;;;;;;10.60;2.55;;;;;;;6.90;95.47;102436.81;4976396;28;20039;-95
2024/01/23 11:37:50;;;;;;;12.30;3.03;;;;;;;7.00;95.02;102452.53;4977196;28;20037;-95
2024/01/23 11:40:38;;;;;;;13.20;2.60;;;;;;;7.01;95.27;102456.84;4976553;28;20061;-95
2024/01/23 11:43:23;;;;;;;13.75;2.80;;;;;;;7.04;95.59;102457.81;4976928;28;20057;-94
2024/01/23 11:45:49;;;;;;;10.18;2.75;;;;;;;6.97;95.58;102422.34;4977007;28;20023;-95
2024/01/23 11:48:16;;;;;;;12.47;2.73;;;;;;;7.14;94.42;102439.97;4976022;28;20026;-95